createdAt,value
2023-02-15T00:01:41.055Z,30.03
2023-02-15T00:04:09.142Z,29.83
2023-02-15T00:06:36.384Z,32.90
2023-02-15T00:09:03.935Z,31.87
2023-02-15T00:11:49.694Z,32.93
2023-02-15T00:14:22.131Z,29.77
2023-02-15T00:16:50.475Z,28.40
2023-02-15T00:19:19.710Z,29.37
2023-02-15T00:21:47.011Z,31.60
2023-02-15T00:24:15.722Z,30.80
2023-02-15T00:26:43.885Z,29.97
2023-02-15T00:29:11.936Z,30.00
2023-02-15T00:31:38.903Z,30.10
2023-02-15T00:34:14.478Z,31.90
2023-02-15T00:36:41.212Z,31.23
2023-02-15T00:39:08.038Z,32.57
2023-02-15T00:41:34.701Z,31.67
2023-02-15T00:44:01.681Z,30.37
2023-02-15T00:46:28.411Z,31.07
2023-02-15T00:48:55.008Z,30.03
2023-02-15T00:51:21.616Z,31.23
2023-02-15T00:53:48.985Z,29.67
2023-02-15T00:56:15.989Z,31.53
2023-02-15T00:58:42.996Z,29.47
2023-02-15T01:01:14.222Z,31.33
2023-02-15T01:03:42.598Z,32.27
2023-02-15T01:06:10.389Z,32.23
2023-02-15T01:08:37.484Z,30.17
2023-02-15T01:11:13.009Z,32.60
2023-02-15T01:13:40.321Z,36.57
2023-02-15T01:16:07.708Z,37.70
2023-02-15T01:18:36.524Z,39.17
2023-02-15T01:21:14.843Z,38.83
2023-02-15T01:23:42.983Z,31.77
2023-02-15T01:26:11.050Z,34.50
2023-02-15T01:28:38.400Z,31.70
2023-02-15T01:31:14.528Z,31.43
2023-02-15T01:33:41.238Z,31.87
2023-02-15T01:36:07.893Z,31.80
2023-02-15T01:38:35.994Z,32.80
2023-02-15T01:41:21.407Z,30.97
2023-02-15T01:44:00.144Z,29.33
2023-02-15T01:46:45.207Z,28.63
2023-02-15T01:49:19.879Z,31.20
2023-02-15T01:51:49.740Z,28.50
2023-02-15T01:54:32.696Z,28.87
2023-02-15T01:57:04.366Z,28.47
2023-02-15T01:59:34.636Z,31.87
2023-02-15T02:02:03.230Z,29.90
2023-02-15T02:04:42.206Z,31.97
2023-02-15T02:07:10.607Z,30.10
2023-02-15T02:09:37.796Z,33.10
2023-02-15T02:12:04.833Z,31.87
2023-02-15T02:14:31.652Z,31.80
2023-02-15T02:17:16.303Z,30.77
2023-02-15T02:20:13.190Z,31.83
2023-02-15T02:22:54.482Z,30.43
2023-02-15T02:25:29.741Z,30.33
2023-02-15T02:28:29.297Z,30.87
2023-02-15T02:31:01.792Z,28.57
2023-02-15T02:33:43.433Z,30.40
2023-02-15T02:36:42.885Z,29.97
2023-02-15T02:39:35.087Z,30.77
2023-02-15T02:42:23.895Z,31.27
2023-02-15T02:45:28.370Z,32.10
2023-02-15T02:48:04.685Z,31.10
2023-02-15T02:50:31.634Z,29.70
2023-02-15T02:52:59.831Z,30.50
2023-02-15T02:55:41.868Z,30.30
2023-02-15T02:58:25.059Z,28.17
2023-02-15T03:01:15.349Z,29.43
2023-02-15T03:03:43.874Z,29.90
2023-02-15T03:06:18.893Z,31.17
2023-02-15T03:09:02.242Z,29.73
2023-02-15T03:11:29.084Z,30.90
2023-02-15T03:13:55.717Z,32.10
2023-02-15T03:16:28.935Z,31.20
2023-02-15T03:19:09.030Z,29.80
2023-02-15T03:21:50.448Z,31.27
2023-02-15T03:24:23.079Z,30.97
2023-02-15T03:26:55.073Z,27.90
2023-02-15T03:29:24.823Z,30.13
2023-02-15T03:32:00.340Z,28.97
2023-02-15T03:34:27.855Z,28.47
2023-02-15T03:37:00.672Z,30.67
2023-02-15T03:39:47.344Z,31.40
2023-02-15T03:42:22.880Z,29.13
2023-02-15T03:44:59.632Z,29.37
2023-02-15T03:47:39.786Z,27.83
2023-02-15T03:50:39.725Z,29.50
2023-02-15T03:53:10.209Z,29.40
2023-02-15T03:55:37.178Z,27.80
2023-02-15T03:58:23.171Z,29.97
2023-02-15T04:01:47.594Z,25.10
2023-02-15T04:04:21.206Z,27.03
2023-02-15T04:06:48.155Z,26.60
2023-02-15T04:09:33.692Z,26.53
2023-02-15T04:12:00.388Z,29.83
2023-02-15T04:14:45.832Z,29.67
2023-02-15T04:17:12.517Z,27.70
2023-02-15T04:19:57.638Z,30.60
2023-02-15T04:22:42.972Z,29.80
2023-02-15T04:25:15.803Z,27.27
2023-02-15T04:27:45.094Z,29.40
2023-02-15T04:30:13.295Z,27.83
2023-02-15T04:32:39.958Z,29.70
2023-02-15T04:35:07.557Z,30.50
2023-02-15T04:37:34.705Z,29.93
2023-02-15T04:40:01.340Z,31.33
2023-02-15T04:42:28.364Z,28.70
2023-02-15T04:44:55.445Z,28.40
2023-02-15T04:47:22.444Z,26.20
2023-02-15T04:49:49.276Z,25.50
2023-02-15T04:52:16.189Z,26.40
2023-02-15T04:54:42.805Z,26.93
2023-02-15T04:57:09.547Z,27.20
2023-02-15T04:59:36.233Z,28.93
2023-02-15T05:02:03.218Z,25.80
2023-02-15T05:04:30.074Z,27.23
2023-02-15T05:06:56.706Z,26.10
2023-02-15T05:09:23.371Z,26.77
2023-02-15T05:11:50.055Z,27.50
2023-02-15T05:14:16.702Z,27.10
2023-02-15T05:16:43.435Z,27.30
2023-02-15T05:19:10.059Z,25.03
2023-02-15T05:21:36.795Z,27.63
2023-02-15T05:24:23.597Z,25.47
2023-02-15T05:27:08.822Z,25.00
2023-02-15T05:29:35.595Z,26.20
2023-02-15T05:32:03.404Z,26.03
2023-02-15T05:34:30.103Z,26.53
2023-02-15T05:36:56.710Z,26.60
2023-02-15T05:39:23.356Z,26.10
2023-02-15T05:41:49.983Z,25.70
2023-02-15T05:44:16.631Z,25.47
2023-02-15T05:46:43.367Z,25.67
2023-02-15T05:49:09.986Z,26.47
2023-02-15T05:51:36.582Z,23.63
2023-02-15T05:54:03.200Z,24.90
2023-02-15T05:56:29.801Z,25.07
2023-02-15T05:58:56.448Z,25.23
2023-02-15T06:01:23.890Z,24.60
2023-02-15T06:03:50.651Z,25.70
2023-02-15T06:06:17.543Z,26.27
2023-02-15T06:08:44.468Z,25.20
2023-02-15T06:11:11.774Z,26.00
2023-02-15T06:13:39.042Z,24.87
2023-02-15T06:16:06.893Z,24.70
2023-02-15T06:18:33.590Z,24.70
2023-02-15T06:21:00.231Z,24.47
2023-02-15T06:23:26.902Z,27.27
2023-02-15T06:25:53.493Z,26.93
2023-02-15T06:28:20.099Z,25.03
2023-02-15T06:30:47.555Z,28.07
2023-02-15T06:33:14.229Z,26.60
2023-02-15T06:35:40.890Z,26.50
2023-02-15T06:38:07.462Z,25.47
2023-02-15T06:40:34.078Z,25.53
2023-02-15T06:43:00.685Z,27.33
2023-02-15T06:45:27.310Z,28.93
2023-02-15T06:47:53.914Z,27.20
2023-02-15T06:50:20.871Z,25.30
2023-02-15T06:52:47.489Z,24.70
2023-02-15T06:55:14.106Z,27.63
2023-02-15T06:57:41.089Z,26.33
2023-02-15T07:00:09.080Z,26.73
2023-02-15T07:02:35.771Z,25.10
2023-02-15T07:05:02.510Z,20.20
2023-02-15T07:07:29.272Z,25.10
2023-02-15T07:09:55.913Z,23.03
2023-02-15T07:12:41.334Z,23.97
2023-02-15T07:15:16.464Z,22.70
2023-02-15T07:17:44.354Z,23.40
2023-02-15T07:20:22.546Z,23.43
2023-02-15T07:22:50.033Z,25.50
2023-02-15T07:25:17.405Z,23.10
2023-02-15T07:27:45.660Z,23.37
2023-02-15T07:30:15.304Z,26.40
2023-02-15T07:33:04.735Z,26.00
2023-02-15T07:35:31.576Z,23.10
2023-02-15T07:37:58.166Z,22.50
2023-02-15T07:40:24.831Z,28.27
2023-02-15T07:42:55.834Z,26.03
2023-02-15T07:45:22.963Z,24.00
2023-02-15T07:47:49.685Z,26.83
2023-02-15T07:50:16.435Z,24.53
2023-02-15T07:52:43.082Z,25.10
2023-02-15T07:55:09.879Z,26.87
2023-02-15T07:57:36.547Z,25.97
2023-02-15T08:00:04.359Z,24.23
2023-02-15T08:02:31.230Z,25.07
2023-02-15T08:04:57.882Z,27.60
2023-02-15T08:07:24.522Z,26.30
2023-02-15T08:09:51.104Z,24.97
2023-02-15T08:12:17.701Z,27.67
2023-02-15T08:14:44.296Z,25.33
2023-02-15T08:17:10.957Z,27.90
2023-02-15T08:19:37.583Z,25.63
2023-02-15T08:22:08.923Z,23.97
2023-02-15T08:24:40.207Z,25.10
2023-02-15T08:27:09.264Z,24.27
2023-02-15T08:29:38.350Z,24.97
2023-02-15T08:32:10.592Z,24.00
2023-02-15T08:38:31.635Z,23.77
2023-02-15T08:41:20.090Z,23.77
2023-02-15T08:43:49.576Z,23.63
2023-02-15T08:46:17.242Z,23.73
2023-02-15T08:48:45.007Z,25.77
2023-02-15T08:51:17.807Z,26.07
2023-02-15T08:53:46.998Z,25.17
2023-02-15T08:56:13.671Z,25.20
2023-02-15T08:58:40.292Z,25.40
2023-02-15T09:01:27.553Z,25.60
2023-02-15T09:04:00.426Z,27.47
2023-02-15T09:06:27.922Z,27.57
2023-02-15T09:08:55.508Z,25.50
2023-02-15T09:11:30.477Z,22.97
2023-02-15T09:14:09.983Z,25.27
2023-02-15T09:16:38.855Z,24.83
2023-02-15T09:19:06.318Z,25.63
2023-02-15T09:21:34.967Z,27.43
2023-02-15T09:24:08.563Z,24.17
2023-02-15T09:26:37.723Z,27.30
2023-02-15T09:29:04.842Z,25.17
2023-02-15T09:31:34.756Z,24.20
2023-02-15T09:34:02.626Z,25.97
2023-02-15T09:36:34.697Z,23.57
2023-02-15T09:39:08.620Z,27.43
2023-02-15T09:41:50.367Z,24.93
2023-02-15T09:44:48.329Z,23.60
2023-02-15T09:47:33.037Z,26.17
2023-02-15T09:50:32.427Z,24.43
2023-02-15T09:53:28.505Z,23.17
2023-02-15T09:56:06.173Z,25.87
2023-02-15T09:59:03.614Z,24.43
2023-02-15T10:01:45.603Z,24.77
2023-02-15T10:04:41.860Z,26.53
2023-02-15T10:07:43.197Z,27.60
2023-02-15T10:10:26.257Z,27.47
2023-02-15T10:13:07.181Z,26.33
2023-02-15T10:15:58.192Z,26.60
2023-02-15T10:18:27.868Z,27.67
2023-02-15T10:21:10.810Z,27.60
2023-02-15T10:23:40.489Z,25.80
2023-02-15T10:26:23.649Z,28.50
2023-02-15T10:28:54.290Z,27.77
2023-02-15T10:31:33.184Z,30.40
2023-02-15T10:34:13.899Z,30.87
2023-02-15T10:36:51.263Z,28.40
2023-02-15T10:39:44.703Z,30.23
2023-02-15T10:42:47.067Z,27.83
2023-02-15T10:45:13.735Z,29.40
2023-02-15T10:47:49.792Z,30.00
2023-02-15T10:50:26.019Z,29.83
2023-02-15T10:52:55.534Z,29.67
2023-02-15T10:55:45.849Z,29.80
2023-02-15T10:58:25.850Z,31.60
2023-02-15T11:01:05.610Z,29.63
2023-02-15T11:03:43.985Z,28.97
2023-02-15T11:06:17.677Z,28.93
2023-02-15T11:08:48.835Z,30.13
2023-02-15T11:11:26.328Z,33.03
2023-02-15T11:13:58.829Z,31.53
2023-02-15T11:16:33.625Z,29.80
2023-02-15T11:19:11.670Z,29.60
2023-02-15T11:21:43.838Z,28.77
2023-02-15T11:24:17.003Z,27.60
2023-02-15T11:26:47.511Z,28.97
2023-02-15T11:29:29.273Z,32.23
2023-02-15T11:32:02.795Z,30.10
2023-02-15T11:34:39.282Z,31.30
2023-02-15T11:37:13.251Z,29.13
2023-02-15T11:39:40.999Z,29.47
2023-02-15T11:42:21.444Z,29.53
2023-02-15T11:45:20.673Z,30.37
2023-02-15T11:47:47.284Z,29.50
2023-02-15T11:50:23.333Z,31.40
2023-02-15T11:52:52.786Z,28.17
2023-02-15T11:55:23.474Z,29.77
2023-02-15T11:58:08.057Z,30.67
2023-02-15T12:00:39.189Z,28.90
2023-02-15T12:03:15.253Z,30.27
2023-02-15T12:05:45.471Z,30.80
2023-02-15T12:08:20.214Z,30.30
2023-02-15T12:11:06.788Z,27.70
2023-02-15T12:13:33.506Z,29.30
2023-02-15T12:16:11.338Z,30.50
2023-02-15T12:18:41.286Z,32.30
2023-02-15T12:21:14.414Z,28.43
2023-02-15T12:23:43.407Z,29.20
2023-02-15T12:26:10.453Z,31.60
2023-02-15T12:28:42.000Z,30.27
2023-02-15T12:31:25.084Z,29.03
2023-02-15T12:33:55.062Z,28.17
2023-02-15T12:36:32.932Z,30.23
2023-02-15T12:39:05.726Z,30.27
2023-02-15T12:41:32.957Z,28.40
2023-02-15T12:44:30.764Z,27.60
2023-02-15T12:47:06.657Z,30.43
2023-02-15T12:49:38.075Z,28.30
2023-02-15T12:52:21.095Z,29.07
2023-02-15T12:54:48.486Z,27.70
2023-02-15T12:57:23.208Z,30.57
2023-02-15T13:00:18.653Z,29.77
2023-02-15T13:02:52.335Z,29.00
2023-02-15T13:05:39.354Z,31.13
2023-02-15T13:08:13.442Z,32.00
2023-02-15T13:10:59.016Z,28.90
2023-02-15T13:13:31.819Z,30.47
2023-02-15T13:16:12.124Z,36.20
2023-02-15T13:18:42.783Z,33.30
2023-02-15T13:21:21.281Z,31.30
2023-02-15T13:23:58.505Z,31.50
2023-02-15T13:26:30.403Z,29.83
2023-02-15T13:29:09.640Z,32.37
2023-02-15T13:31:37.304Z,28.77
2023-02-15T13:34:11.327Z,29.13
2023-02-15T13:36:50.417Z,29.57
2023-02-15T13:39:20.121Z,31.90
2023-02-15T13:41:57.418Z,30.20
2023-02-15T13:44:52.077Z,27.67
2023-02-15T13:47:33.336Z,29.73
2023-02-15T13:50:30.068Z,29.63
2023-02-15T13:53:08.204Z,29.90
2023-02-15T13:55:50.644Z,30.07
2023-02-15T13:58:29.240Z,28.17
2023-02-15T14:01:33.842Z,28.33
2023-02-15T14:04:23.439Z,29.67
2023-02-15T14:07:22.767Z,30.57
2023-02-15T14:10:13.303Z,30.00
2023-02-15T14:12:59.915Z,25.77
2023-02-15T14:15:33.297Z,26.33
2023-02-15T14:18:14.537Z,27.60
2023-02-15T14:20:57.549Z,23.73
2023-02-15T14:23:39.642Z,24.37
2023-02-15T14:26:46.218Z,24.57
2023-02-15T14:29:39.616Z,23.87
2023-02-15T14:32:12.570Z,23.57
2023-02-15T14:34:57.073Z,22.97
2023-02-15T14:37:55.288Z,24.50
2023-02-15T14:41:02.513Z,22.80
2023-02-15T14:44:01.972Z,23.20
2023-02-15T14:46:33.141Z,23.33
2023-02-15T14:49:08.118Z,23.30
2023-02-15T14:51:44.042Z,23.93
2023-02-15T14:54:25.813Z,23.30
2023-02-15T14:57:01.425Z,21.67
2023-02-15T14:59:53.266Z,22.10
2023-02-15T15:02:31.532Z,22.03
2023-02-15T15:05:13.082Z,22.23
2023-02-15T15:07:48.495Z,22.37
2023-02-15T15:10:18.043Z,21.70
2023-02-15T15:12:53.396Z,22.10
2023-02-15T15:15:29.449Z,20.47
2023-02-15T15:17:59.251Z,22.63
2023-02-15T15:20:45.741Z,21.60
2023-02-15T15:23:15.601Z,21.40
2023-02-15T15:26:18.154Z,22.30
2023-02-15T15:28:44.713Z,20.27
2023-02-15T15:31:26.124Z,20.70
2023-02-15T15:34:11.364Z,20.77
2023-02-15T15:36:55.024Z,18.50
2023-02-15T15:39:40.633Z,20.03
2023-02-15T15:42:21.923Z,21.93
2023-02-15T15:45:25.045Z,19.80
2023-02-15T15:48:12.529Z,19.53
2023-02-15T15:50:43.149Z,21.87
2023-02-15T15:53:22.063Z,19.80
2023-02-15T15:55:51.535Z,21.07
2023-02-15T15:58:20.264Z,21.60
2023-02-15T16:01:00.319Z,20.33
2023-02-15T16:03:29.051Z,19.20
2023-02-15T16:05:57.142Z,21.00
2023-02-15T16:08:35.822Z,22.10
2023-02-15T16:11:14.707Z,20.97
2023-02-15T16:13:45.046Z,20.73
2023-02-15T16:16:14.695Z,18.93
2023-02-15T16:18:43.304Z,20.13
2023-02-15T16:21:19.190Z,21.90
2023-02-15T16:24:15.168Z,21.27
2023-02-15T16:27:23.838Z,19.13
2023-02-15T16:29:50.718Z,17.27
2023-02-15T16:32:21.325Z,18.17
2023-02-15T16:34:58.365Z,18.40
2023-02-15T16:37:32.973Z,20.67
2023-02-15T16:39:59.761Z,19.50
2023-02-15T16:42:27.023Z,18.87
2023-02-15T16:45:09.275Z,19.03
2023-02-15T16:47:43.754Z,19.20
2023-02-15T16:50:20.702Z,18.90
2023-02-15T16:52:47.639Z,18.07
2023-02-15T16:55:23.853Z,18.93
2023-02-15T16:57:51.502Z,19.50
2023-02-15T17:00:21.801Z,19.37
2023-02-15T17:02:58.764Z,20.60
2023-02-15T17:05:40.906Z,18.40
2023-02-15T17:08:20.462Z,20.47
2023-02-15T17:11:05.896Z,18.43
2023-02-15T17:13:32.722Z,18.97
2023-02-15T17:15:59.291Z,19.67
2023-02-15T17:18:28.905Z,19.50
2023-02-15T17:21:00.864Z,19.90
2023-02-15T17:23:37.706Z,19.10
2023-02-15T17:26:16.418Z,18.20
2023-02-15T17:29:23.335Z,19.43
2023-02-15T17:31:52.699Z,20.50
2023-02-15T17:34:58.149Z,20.20
2023-02-15T17:37:26.697Z,20.30
2023-02-15T17:39:53.863Z,22.20
2023-02-15T17:42:20.487Z,22.50
2023-02-15T17:44:47.239Z,22.37
2023-02-15T17:47:21.132Z,22.53
2023-02-15T17:49:50.100Z,20.70
2023-02-15T17:52:18.284Z,22.37
2023-02-15T17:55:04.290Z,23.57
2023-02-15T17:57:31.366Z,24.17
2023-02-15T18:00:16.960Z,22.03
2023-02-15T18:03:02.981Z,20.00
2023-02-15T18:05:48.438Z,21.50
2023-02-15T18:08:36.460Z,22.17
2023-02-15T18:11:21.729Z,23.73
2023-02-15T18:13:48.629Z,21.23
2023-02-15T18:16:26.667Z,22.33
2023-02-15T18:18:53.570Z,21.10
2023-02-15T18:21:20.403Z,20.47
2023-02-15T18:23:47.005Z,22.03
2023-02-15T18:26:22.245Z,20.57
2023-02-15T18:28:49.647Z,21.00
2023-02-15T18:31:17.224Z,20.83
2023-02-15T18:33:56.358Z,20.53
2023-02-15T18:36:43.900Z,20.87
2023-02-15T18:39:34.594Z,21.50
2023-02-15T18:42:01.386Z,20.80
2023-02-15T18:44:28.048Z,21.03
2023-02-15T18:46:54.795Z,22.13
2023-02-15T18:49:21.453Z,22.57
2023-02-15T18:51:48.237Z,19.70
2023-02-15T18:54:21.528Z,22.60
2023-02-15T18:56:58.426Z,20.10
2023-02-15T18:59:26.933Z,22.43
2023-02-15T19:01:54.145Z,23.13
2023-02-15T19:04:21.070Z,19.93
2023-02-15T19:06:49.675Z,21.70
2023-02-15T19:09:20.730Z,21.20
2023-02-15T19:11:53.955Z,20.30
2023-02-15T19:14:28.309Z,21.37
2023-02-15T19:16:56.386Z,21.27
2023-02-15T19:19:23.567Z,22.40
2023-02-15T19:21:50.890Z,21.10
2023-02-15T19:24:25.365Z,22.00
2023-02-15T19:26:52.712Z,20.57
2023-02-15T19:29:26.210Z,20.90
2023-02-15T19:31:53.342Z,20.30
2023-02-15T19:34:20.016Z,22.03
2023-02-15T19:36:54.934Z,21.90
2023-02-15T19:39:25.581Z,22.20
2023-02-15T19:41:52.558Z,20.60
2023-02-15T19:44:19.473Z,19.90
2023-02-15T19:46:46.328Z,22.33
2023-02-15T19:49:13.167Z,21.33
2023-02-15T19:51:40.459Z,22.27
2023-02-15T19:54:28.337Z,20.30
2023-02-15T19:56:55.571Z,22.30
2023-02-15T19:59:25.121Z,21.40
2023-02-15T20:01:52.225Z,21.57
2023-02-15T20:04:19.526Z,23.00
2023-02-15T20:06:48.662Z,24.10
2023-02-15T20:09:21.439Z,22.70
2023-02-15T20:11:47.999Z,21.20
2023-02-15T20:14:15.088Z,21.60
2023-02-15T20:16:41.981Z,20.03
2023-02-15T20:19:09.118Z,23.67
2023-02-15T20:21:36.294Z,22.03
2023-02-15T20:24:04.004Z,23.03
2023-02-15T20:26:32.467Z,25.40
2023-02-15T20:29:00.113Z,24.13
2023-02-15T20:31:26.929Z,22.57
2023-02-15T20:33:53.914Z,23.53
2023-02-15T20:36:22.717Z,22.90
2023-02-15T20:38:49.464Z,22.00
2023-02-15T20:41:36.274Z,21.43
2023-02-15T20:44:24.671Z,21.17
2023-02-15T20:46:56.733Z,22.10
2023-02-15T20:49:25.518Z,23.10
2023-02-15T20:51:53.853Z,23.07
2023-02-15T20:54:26.201Z,21.07
2023-02-15T20:56:54.322Z,23.13
2023-02-15T20:59:27.562Z,21.90
2023-02-15T21:02:14.246Z,22.53
2023-02-15T21:04:41.440Z,22.73
2023-02-15T21:07:13.792Z,22.97
2023-02-15T21:09:41.717Z,22.73
2023-02-15T21:12:19.444Z,23.33
2023-02-15T21:14:46.348Z,23.30
2023-02-15T21:17:14.249Z,24.37
2023-02-15T21:19:41.565Z,23.80
2023-02-15T21:22:13.574Z,21.17
2023-02-15T21:24:46.629Z,21.73
2023-02-15T21:27:13.539Z,21.93
2023-02-15T21:29:40.161Z,22.50
2023-02-15T21:32:06.908Z,22.33
2023-02-15T21:34:33.623Z,20.30
2023-02-15T21:37:00.322Z,19.93
2023-02-15T21:39:30.107Z,21.37
2023-02-15T21:42:15.516Z,20.50
2023-02-15T21:45:00.912Z,19.37
2023-02-15T21:47:48.897Z,19.70
2023-02-15T21:50:40.261Z,20.20
2023-02-15T21:53:09.663Z,17.93
2023-02-15T21:55:36.552Z,19.03
2023-02-15T21:58:03.814Z,20.00
2023-02-15T22:00:31.160Z,19.77
2023-02-15T22:03:00.790Z,19.57
2023-02-15T22:05:31.252Z,18.30
2023-02-15T22:07:58.245Z,18.80
2023-02-15T22:10:30.992Z,19.70
2023-02-15T22:13:00.469Z,19.97
2023-02-15T22:15:32.883Z,18.77
2023-02-15T22:17:59.519Z,19.20
2023-02-15T22:20:26.336Z,17.20
2023-02-15T22:22:53.479Z,17.23
2023-02-15T22:25:23.604Z,19.37
2023-02-15T22:27:52.857Z,18.37
2023-02-15T22:30:29.281Z,17.00
2023-02-15T22:32:57.610Z,18.57
2023-02-15T22:35:33.376Z,17.77
2023-02-15T22:38:00.963Z,16.40
2023-02-15T22:40:31.145Z,17.23
2023-02-15T22:43:00.650Z,16.77
2023-02-15T22:45:28.253Z,18.10
2023-02-15T22:47:58.439Z,17.70
2023-02-15T22:50:28.076Z,18.50
2023-02-15T22:52:54.904Z,19.00
2023-02-15T22:55:24.391Z,16.30
2023-02-15T22:57:54.567Z,16.00
2023-02-15T23:00:31.081Z,25.87
2023-02-15T23:02:57.882Z,17.73
2023-02-15T23:05:27.793Z,18.00
2023-02-15T23:07:55.014Z,16.83
2023-02-15T23:10:24.589Z,15.50
2023-02-15T23:13:17.822Z,16.60
2023-02-15T23:15:48.654Z,16.60
2023-02-15T23:18:19.525Z,16.90
2023-02-15T23:20:52.361Z,18.07
2023-02-15T23:23:24.480Z,16.43
2023-02-15T23:25:51.213Z,15.77
2023-02-15T23:28:37.579Z,16.13
2023-02-15T23:31:16.077Z,15.50
2023-02-15T23:33:42.956Z,15.83
2023-02-15T23:36:25.760Z,15.50
2023-02-15T23:38:54.251Z,16.43
2023-02-15T23:41:25.727Z,16.07
2023-02-15T23:44:00.946Z,16.53
2023-02-15T23:46:41.365Z,17.17
2023-02-15T23:49:15.297Z,16.47
2023-02-15T23:51:44.222Z,15.77
2023-02-15T23:54:11.521Z,16.97
2023-02-15T23:56:38.874Z,17.20
2023-02-15T23:59:06.111Z,16.00
